Time;durP1;ratioP1;P1;durP2;ratioP2;P2;SDS_P1;SDS_P2;PMS_P1;PMS_P2;Temp;Humidity;BMP_temperature;BMP_pressure;BME280_temperature;BME280_humidity;BME280_pressure;Samples;Min_cycle;Max_cycle;Signal;HPM_P1;HPM_P2
2022/05/30 00:02:07;;;;;;;;;;;20.20;43.10;;;;;;4935835;28;19969;-54
2022/05/30 00:04:35;;;;;;;;;;;20.20;43.00;;;;;;4924987;29;19993;-51
2022/05/30 00:07:02;;;;;;;;;;;20.20;43.00;;;;;;4927527;28;19977;-54
2022/05/30 00:09:29;;;;;;;;;;;20.20;43.00;;;;;;4940830;28;20267;-53
2022/05/30 00:11:55;;;;;;;;;;;20.20;43.00;;;;;;4928947;29;20041;-56
2022/05/30 00:14:23;;;;;;;;;;;20.20;43.00;;;;;;4929030;29;19923;-53
2022/05/30 00:16:50;;;;;;;;;;;20.20;43.00;;;;;;4932811;29;19929;-55
2022/05/30 00:19:17;;;;;;;;;;;20.20;43.00;;;;;;4932517;28;19929;-57
2022/05/30 00:21:44;;;;;;;;;;;20.20;43.00;;;;;;4932236;29;19923;-55
2022/05/30 00:24:10;;;;;;;;;;;20.20;43.00;;;;;;4947407;28;19958;-55
2022/05/30 00:26:37;;;;;;;;;;;20.20;43.00;;;;;;4942618;28;19923;-56
2022/05/30 00:29:04;;;;;;;;;;;20.20;43.00;;;;;;4948682;28;19992;-55
2022/05/30 00:31:32;;;;;;;;;;;20.20;43.50;;;;;;4933640;29;19922;-52
2022/05/30 00:33:58;;;;;;;;;;;20.20;42.90;;;;;;4927786;28;20036;-55
2022/05/30 00:36:25;;;;;;;;;;;20.20;42.90;;;;;;4928499;28;20268;-53
2022/05/30 00:38:52;;;;;;;;;;;20.20;42.90;;;;;;4926172;28;20373;-52
2022/05/30 00:41:18;;;;;;;;;;;20.20;42.90;;;;;;4932489;28;20321;-52
2022/05/30 00:43:45;;;;;;;;;;;20.20;43.00;;;;;;4932809;28;19922;-56
2022/05/30 00:46:15;;;;;;;;;;;20.20;43.00;;;;;;4933455;29;20353;-52
2022/05/30 00:48:45;;;;;;;;;;;20.20;43.00;;;;;;4927745;28;20292;-56
2022/05/30 00:51:13;;;;;;;;;;;20.20;43.00;;;;;;4947803;28;19929;-54
2022/05/30 00:53:40;;;;;;;;;;;20.30;43.10;;;;;;4943225;28;20303;-53
2022/05/30 00:56:07;;;;;;;;;;;20.30;43.20;;;;;;4933060;29;19922;-53
2022/05/30 00:58:34;;;;;;;;;;;20.30;43.20;;;;;;4929885;28;20279;-54
2022/05/30 01:01:01;;;;;;;;;;;20.30;43.20;;;;;;4933348;28;19922;-56
2022/05/30 01:06:32;;;;;;;;;;;20.30;43.20;;;;;;4925050;28;19923;-52
2022/05/30 01:08:58;;;;;;;;;;;20.30;43.20;;;;;;4928184;29;19930;-51
2022/05/30 01:11:25;;;;;;;;;;;20.30;43.10;;;;;;4935419;28;19927;-50
2022/05/30 01:13:52;;;;;;;;;;;20.30;43.20;;;;;;4936865;28;19969;-51
2022/05/30 01:16:20;;;;;;;;;;;20.30;43.20;;;;;;4934570;28;19962;-52
2022/05/30 01:18:47;;;;;;;;;;;20.30;43.20;;;;;;4935305;29;19950;-51
2022/05/30 01:21:25;;;;;;;;;;;20.30;43.20;;;;;;4935810;29;19977;-49
2022/05/30 01:23:54;;;;;;;;;;;20.30;43.20;;;;;;4931555;29;19923;-50
2022/05/30 01:26:39;;;;;;;;;;;20.30;43.20;;;;;;4938001;28;19927;-54
2022/05/30 01:29:08;;;;;;;;;;;20.30;43.20;;;;;;4933410;28;19922;-54
2022/05/30 01:31:35;;;;;;;;;;;20.30;43.20;;;;;;4932489;28;19934;-55
2022/05/30 01:34:02;;;;;;;;;;;20.40;43.30;;;;;;4936612;29;19969;-55
2022/05/30 01:36:29;;;;;;;;;;;20.40;43.20;;;;;;4933900;28;20017;-56
2022/05/30 01:38:55;;;;;;;;;;;20.40;43.30;;;;;;4928172;29;19938;-55
2022/05/30 01:41:22;;;;;;;;;;;20.40;43.20;;;;;;4934616;28;19923;-55
2022/05/30 01:43:49;;;;;;;;;;;20.40;43.20;;;;;;4936226;29;20025;-55
2022/05/30 01:46:17;;;;;;;;;;;20.30;43.20;;;;;;4929922;28;19933;-51
2022/05/30 01:48:45;;;;;;;;;;;20.40;43.30;;;;;;4951153;28;19923;-55
2022/05/30 01:51:12;;;;;;;;;;;20.40;43.30;;;;;;4952090;28;20346;-55
2022/05/30 01:53:39;;;;;;;;;;;20.40;43.30;;;;;;4957599;28;19945;-56
2022/05/30 01:56:06;;;;;;;;;;;20.40;43.30;;;;;;4930596;28;20451;-54
2022/05/30 01:58:33;;;;;;;;;;;20.40;43.30;;;;;;4956820;28;19930;-57
2022/05/30 02:01:00;;;;;;;;;;;20.40;43.20;;;;;;4940784;28;19934;-52
2022/05/30 02:03:30;;;;;;;;;;;20.40;43.30;;;;;;4935346;28;19977;-54
2022/05/30 02:05:57;;;;;;;;;;;20.40;43.30;;;;;;4932328;28;19946;-52
2022/05/30 02:08:23;;;;;;;;;;;20.40;43.30;;;;;;4931808;28;19926;-56
2022/05/30 02:10:50;;;;;;;;;;;20.40;43.20;;;;;;4928636;28;20455;-54
2022/05/30 02:13:17;;;;;;;;;;;20.40;43.20;;;;;;4923278;28;19926;-53
2022/05/30 02:18:30;;;;;;;;;;;20.40;43.20;;;;;;4924522;29;19923;-56
2022/05/30 02:20:57;;;;;;;;;;;20.40;43.20;;;;;;4929946;29;19938;-56
2022/05/30 02:23:24;;;;;;;;;;;20.40;43.20;;;;;;4933995;28;20279;-52
2022/05/30 02:25:50;;;;;;;;;;;20.40;43.20;;;;;;4933261;29;19962;-56
2022/05/30 02:28:17;;;;;;;;;;;20.40;43.20;;;;;;4935877;29;20486;-53
2022/05/30 02:30:44;;;;;;;;;;;20.40;43.20;;;;;;4934671;28;19922;-55
2022/05/30 02:38:40;;;;;;;;;;;20.40;43.20;;;;;;4930214;29;19923;-53
2022/05/30 02:41:06;;;;;;;;;;;20.40;43.20;;;;;;4916992;28;20399;-52
2022/05/30 02:43:33;;;;;;;;;;;20.40;43.20;;;;;;4929761;28;19927;-55
2022/05/30 02:46:00;;;;;;;;;;;20.40;43.30;;;;;;4934067;29;19953;-57
2022/05/30 02:48:26;;;;;;;;;;;20.40;43.30;;;;;;4950466;28;19940;-52
2022/05/30 02:50:53;;;;;;;;;;;20.40;43.30;;;;;;4933647;28;20327;-56
2022/05/30 02:53:21;;;;;;;;;;;20.40;43.30;;;;;;4932236;29;20372;-53
2022/05/30 02:55:48;;;;;;;;;;;20.40;43.30;;;;;;4962155;28;20317;-51
2022/05/30 02:58:14;;;;;;;;;;;20.40;43.30;;;;;;4946296;28;20322;-54
2022/05/30 03:00:41;;;;;;;;;;;20.40;43.30;;;;;;4933203;29;19923;-55
2022/05/30 03:03:08;;;;;;;;;;;20.40;43.30;;;;;;4919818;28;19923;-52
2022/05/30 03:05:34;;;;;;;;;;;20.40;43.30;;;;;;4934091;28;20372;-53
2022/05/30 03:08:04;;;;;;;;;;;20.40;43.30;;;;;;4931513;28;19923;-56
2022/05/30 03:10:32;;;;;;;;;;;20.40;43.20;;;;;;4926689;29;19993;-52
2022/05/30 03:12:59;;;;;;;;;;;20.40;43.30;;;;;;4931905;28;19923;-54
2022/05/30 03:15:25;;;;;;;;;;;20.40;43.30;;;;;;4930104;29;19923;-54
2022/05/30 03:17:52;;;;;;;;;;;20.40;43.20;;;;;;4947858;28;19969;-54
2022/05/30 03:20:19;;;;;;;;;;;20.40;43.30;;;;;;4944357;29;20338;-54
2022/05/30 03:22:45;;;;;;;;;;;20.40;43.30;;;;;;4943938;28;19923;-55
2022/05/30 03:25:12;;;;;;;;;;;20.40;43.30;;;;;;4932071;28;19981;-58
2022/05/30 03:27:40;;;;;;;;;;;20.40;43.30;;;;;;4933297;29;19930;-53
2022/05/30 03:30:07;;;;;;;;;;;20.40;43.30;;;;;;4935260;28;20025;-53
2022/05/30 03:32:33;;;;;;;;;;;20.40;43.30;;;;;;4942106;29;19929;-51
2022/05/30 03:35:00;;;;;;;;;;;20.40;43.30;;;;;;4931329;28;19969;-52
2022/05/30 03:37:27;;;;;;;;;;;20.40;43.30;;;;;;4933066;29;20367;-54
2022/05/30 03:39:53;;;;;;;;;;;20.40;43.30;;;;;;4951843;28;20041;-53
2022/05/30 03:42:20;;;;;;;;;;;20.40;43.30;;;;;;4944440;28;19923;-50
2022/05/30 03:44:48;;;;;;;;;;;20.40;43.30;;;;;;4926799;28;19963;-54
2022/05/30 03:47:15;;;;;;;;;;;20.40;43.30;;;;;;4929935;28;20287;-56
2022/05/30 03:49:41;;;;;;;;;;;20.40;43.30;;;;;;4962477;28;19923;-56
2022/05/30 03:52:08;;;;;;;;;;;20.40;43.30;;;;;;4949031;28;19923;-55
2022/05/30 03:54:35;;;;;;;;;;;20.40;43.30;;;;;;4932430;28;19973;-55
2022/05/30 03:57:01;;;;;;;;;;;20.40;43.30;;;;;;4931576;29;19950;-52
2022/05/30 03:59:28;;;;;;;;;;;20.40;43.30;;;;;;4948031;28;19923;-55
2022/05/30 04:01:56;;;;;;;;;;;20.40;43.30;;;;;;4924963;29;20006;-56
2022/05/30 04:04:23;;;;;;;;;;;20.40;43.30;;;;;;4942500;28;20033;-52
2022/05/30 04:06:49;;;;;;;;;;;20.40;43.30;;;;;;4934629;29;20017;-54
2022/05/30 04:09:16;;;;;;;;;;;20.40;43.30;;;;;;4931238;28;19993;-56
2022/05/30 04:11:43;;;;;;;;;;;20.40;43.30;;;;;;4932115;29;19958;-50
2022/05/30 04:14:09;;;;;;;;;;;20.40;43.30;;;;;;4931955;29;20295;-54
2022/05/30 04:16:36;;;;;;;;;;;20.40;43.30;;;;;;4945041;28;20006;-52
2022/05/30 04:19:04;;;;;;;;;;;20.40;43.30;;;;;;4945830;28;19922;-54
2022/05/30 04:21:31;;;;;;;;;;;20.40;43.30;;;;;;4932423;28;19933;-54
2022/05/30 04:23:57;;;;;;;;;;;20.40;43.30;;;;;;4957593;28;19926;-55
2022/05/30 04:26:24;;;;;;;;;;;20.40;43.30;;;;;;4943825;28;20315;-53
2022/05/30 04:28:51;;;;;;;;;;;20.40;43.30;;;;;;4945515;28;19950;-54
2022/05/30 04:31:17;;;;;;;;;;;20.40;43.30;;;;;;4931760;28;19926;-54
2022/05/30 04:33:44;;;;;;;;;;;20.40;43.40;;;;;;4931227;28;19929;-51
2022/05/30 04:36:12;;;;;;;;;;;20.40;43.30;;;;;;4931232;29;19927;-55
2022/05/30 04:38:39;;;;;;;;;;;20.40;43.30;;;;;;4931943;28;19954;-55
2022/05/30 04:41:06;;;;;;;;;;;20.40;43.30;;;;;;4932620;28;20005;-56
2022/05/30 04:43:32;;;;;;;;;;;20.40;43.30;;;;;;4932926;28;19982;-53
2022/05/30 04:46:03;;;;;;;;;;;20.40;43.30;;;;;;4934687;29;19972;-57
2022/05/30 04:48:30;;;;;;;;;;;20.40;43.30;;;;;;4935280;29;20013;-54
2022/05/30 04:50:56;;;;;;;;;;;20.40;43.30;;;;;;4952355;28;19928;-56
2022/05/30 04:53:24;;;;;;;;;;;20.40;43.30;;;;;;4934499;29;19923;-56
2022/05/30 04:55:51;;;;;;;;;;;20.40;43.30;;;;;;4935140;29;20017;-54
2022/05/30 04:58:18;;;;;;;;;;;20.40;43.40;;;;;;4935614;28;19933;-52
2022/05/30 05:00:45;;;;;;;;;;;20.40;43.30;;;;;;4950208;28;19929;-56
2022/05/30 05:03:12;;;;;;;;;;;20.40;43.30;;;;;;4934137;28;19927;-53
2022/05/30 05:05:38;;;;;;;;;;;20.40;43.30;;;;;;4934922;28;19923;-55
2022/05/30 05:08:06;;;;;;;;;;;20.40;43.40;;;;;;4951476;28;19949;-51
2022/05/30 05:10:41;;;;;;;;;;;20.40;43.30;;;;;;4949168;28;20283;-56
2022/05/30 05:13:08;;;;;;;;;;;20.40;43.30;;;;;;4935431;29;19927;-56
2022/05/30 05:15:34;;;;;;;;;;;20.40;43.40;;;;;;4935638;29;20271;-56
2022/05/30 05:18:01;;;;;;;;;;;20.40;43.40;;;;;;4946695;28;19923;-54
2022/05/30 05:20:28;;;;;;;;;;;20.40;43.40;;;;;;4933438;29;19954;-53
2022/05/30 05:22:55;;;;;;;;;;;20.40;43.40;;;;;;4935370;28;19923;-50
2022/05/30 05:25:21;;;;;;;;;;;20.40;43.40;;;;;;4935807;28;19923;-49
2022/05/30 05:27:49;;;;;;;;;;;20.40;43.40;;;;;;4935892;28;19923;-49
2022/05/30 05:30:16;;;;;;;;;;;20.40;43.40;;;;;;4933638;29;20001;-49
2022/05/30 05:32:43;;;;;;;;;;;20.40;43.40;;;;;;4936258;28;19934;-51
2022/05/30 05:35:09;;;;;;;;;;;20.40;43.50;;;;;;4934965;29;20014;-51
2022/05/30 05:37:36;;;;;;;;;;;20.40;43.50;;;;;;4935901;28;19930;-53
2022/05/30 05:40:03;;;;;;;;;;;20.40;43.50;;;;;;4935325;28;19923;-50
2022/05/30 05:42:29;;;;;;;;;;;20.40;43.50;;;;;;4949647;28;19927;-49
2022/05/30 05:44:57;;;;;;;;;;;20.40;43.50;;;;;;4935138;28;19929;-53
2022/05/30 05:47:24;;;;;;;;;;;20.40;43.50;;;;;;4935033;28;19923;-53
2022/05/30 05:49:51;;;;;;;;;;;20.40;43.50;;;;;;4934376;28;19923;-52
2022/05/30 05:52:18;;;;;;;;;;;20.40;43.50;;;;;;4949345;28;20017;-54
2022/05/30 05:54:44;;;;;;;;;;;20.40;43.60;;;;;;4935370;28;19962;-52
2022/05/30 05:57:11;;;;;;;;;;;20.40;43.60;;;;;;4937236;29;19970;-50
2022/05/30 05:59:38;;;;;;;;;;;20.40;43.50;;;;;;4931361;28;20308;-50
2022/05/30 06:02:06;;;;;;;;;;;20.40;43.50;;;;;;4934959;28;19971;-55
2022/05/30 06:04:33;;;;;;;;;;;20.40;43.60;;;;;;4931667;28;19930;-51
2022/05/30 06:07:00;;;;;;;;;;;20.40;43.50;;;;;;4931985;28;19961;-53
2022/05/30 06:09:27;;;;;;;;;;;20.40;43.60;;;;;;4935828;28;19930;-51
2022/05/30 06:11:53;;;;;;;;;;;20.40;43.60;;;;;;4936365;29;19981;-49
2022/05/30 06:14:22;;;;;;;;;;;20.40;43.60;;;;;;4935132;28;20074;-49
2022/05/30 06:16:48;;;;;;;;;;;20.40;43.60;;;;;;4939997;29;19931;-54
2022/05/30 06:19:16;;;;;;;;;;;20.40;43.60;;;;;;4927416;28;19959;-50
2022/05/30 06:21:43;;;;;;;;;;;20.40;43.60;;;;;;4935799;29;19923;-53
2022/05/30 06:24:10;;;;;;;;;;;20.40;43.60;;;;;;4934790;28;19923;-53
2022/05/30 06:26:36;;;;;;;;;;;20.40;43.60;;;;;;4935757;28;20286;-53
2022/05/30 06:29:03;;;;;;;;;;;20.40;43.60;;;;;;4935954;28;20257;-53
2022/05/30 06:31:30;;;;;;;;;;;20.40;43.60;;;;;;4934325;29;20326;-53
2022/05/30 06:33:57;;;;;;;;;;;20.40;43.60;;;;;;4938214;29;20001;-52
2022/05/30 06:36:25;;;;;;;;;;;20.40;43.70;;;;;;4935884;28;19923;-51
2022/05/30 06:38:52;;;;;;;;;;;20.40;43.70;;;;;;4937845;28;19981;-52
2022/05/30 06:41:19;;;;;;;;;;;20.40;43.70;;;;;;4936244;29;19961;-54
2022/05/30 06:43:46;;;;;;;;;;;20.40;43.70;;;;;;4931217;28;19954;-49
2022/05/30 06:46:13;;;;;;;;;;;20.40;43.70;;;;;;4947413;28;20249;-53
2022/05/30 06:48:39;;;;;;;;;;;20.40;43.70;;;;;;4935579;28;20025;-50
2022/05/30 06:51:06;;;;;;;;;;;20.40;43.70;;;;;;4924252;29;19923;-53
2022/05/30 06:53:34;;;;;;;;;;;20.40;43.70;;;;;;4921378;28;19969;-53
2022/05/30 06:56:01;;;;;;;;;;;20.40;43.70;;;;;;4945634;29;19969;-50
2022/05/30 06:58:28;;;;;;;;;;;20.40;43.70;;;;;;4931875;29;19922;-53
2022/05/30 07:00:59;;;;;;;;;;;20.40;43.70;;;;;;4951089;28;19927;-53
2022/05/30 07:03:26;;;;;;;;;;;20.40;43.80;;;;;;4935198;29;20017;-52
2022/05/30 07:05:53;;;;;;;;;;;20.40;43.80;;;;;;4922083;28;20382;-53
2022/05/30 07:08:19;;;;;;;;;;;20.40;43.80;;;;;;4918191;29;19927;-58
2022/05/30 07:10:48;;;;;;;;;;;20.40;43.80;;;;;;4931077;28;20388;-55
2022/05/30 07:13:14;;;;;;;;;;;20.40;43.80;;;;;;4907994;28;20084;-58
2022/05/30 07:15:41;;;;;;;;;;;20.40;44.40;;;;;;4931525;28;19941;-56
2022/05/30 07:18:09;;;;;;;;;;;20.40;43.80;;;;;;4916639;28;19930;-55
2022/05/30 07:20:36;;;;;;;;;;;20.40;43.90;;;;;;4923645;28;20320;-57
2022/05/30 07:23:03;;;;;;;;;;;20.40;44.10;;;;;;4948576;28;19923;-57
2022/05/30 07:25:29;;;;;;;;;;;20.40;44.10;;;;;;4929286;28;20006;-57
2022/05/30 07:27:57;;;;;;;;;;;20.40;44.20;;;;;;4924952;28;19923;-55
2022/05/30 07:30:24;;;;;;;;;;;20.50;44.20;;;;;;4937044;28;19935;-55
2022/05/30 07:32:51;;;;;;;;;;;20.50;44.30;;;;;;4945879;28;19930;-58
2022/05/30 07:35:17;;;;;;;;;;;20.50;44.30;;;;;;4929564;28;19926;-56
2022/05/30 07:37:44;;;;;;;;;;;20.50;44.30;;;;;;4926910;28;19933;-54
2022/05/30 07:40:12;;;;;;;;;;;20.50;45.00;;;;;;4923371;28;20008;-58
2022/05/30 07:42:38;;;;;;;;;;;20.50;44.30;;;;;;4923429;28;20624;-53
2022/05/30 07:45:08;;;;;;;;;;;20.50;44.40;;;;;;4939413;28;20003;-57
2022/05/30 07:47:35;;;;;;;;;;;20.60;44.50;;;;;;4920084;28;20699;-53
2022/05/30 07:50:03;;;;;;;;;;;20.60;44.50;;;;;;4931059;28;19934;-58
2022/05/30 07:52:30;;;;;;;;;;;20.60;44.60;;;;;;4926991;28;20161;-54
2022/05/30 07:54:57;;;;;;;;;;;20.60;44.60;;;;;;4913895;28;19957;-53
2022/05/30 07:57:50;;;;;;;;;;;20.60;44.50;;;;;;4913804;28;19954;-52
2022/05/30 08:00:14;;;;;;;;;;;20.60;44.60;;;;;;4930463;28;19938;-56
2022/05/30 08:02:41;;;;;;;;;;;20.60;44.60;;;;;;4911667;28;19938;-57
2022/05/30 08:05:08;;;;;;;;;;;20.70;44.60;;;;;;4928675;28;20233;-57
2022/05/30 08:07:34;;;;;;;;;;;20.70;44.60;;;;;;4935305;28;19934;-53
2022/05/30 08:10:01;;;;;;;;;;;20.70;44.60;;;;;;4919083;28;19935;-56
2022/05/30 08:12:28;;;;;;;;;;;20.70;44.60;;;;;;4924786;28;19962;-57
2022/05/30 08:14:54;;;;;;;;;;;20.70;44.70;;;;;;4939265;28;19923;-57
2022/05/30 08:17:22;;;;;;;;;;;20.70;44.70;;;;;;4923736;28;19923;-55
2022/05/30 08:19:49;;;;;;;;;;;20.70;44.60;;;;;;4926069;28;19972;-55
2022/05/30 08:22:16;;;;;;;;;;;20.70;44.70;;;;;;4927363;28;19923;-57
2022/05/30 08:24:44;;;;;;;;;;;20.70;44.60;;;;;;4926276;28;19923;-56
2022/05/30 08:27:11;;;;;;;;;;;20.70;44.60;;;;;;4923310;28;20241;-55
2022/05/30 08:29:37;;;;;;;;;;;20.70;44.50;;;;;;4923188;28;19938;-56
2022/05/30 08:32:05;;;;;;;;;;;20.70;44.50;;;;;;4924966;28;19941;-59
2022/05/30 08:34:34;;;;;;;;;;;20.70;44.50;;;;;;4921054;28;19974;-54
2022/05/30 08:37:01;;;;;;;;;;;20.70;44.50;;;;;;4922330;28;20017;-54
2022/05/30 08:42:12;;;;;;;;;;;20.70;44.50;;;;;;4922733;28;19937;-55
2022/05/30 08:44:38;;;;;;;;;;;20.70;44.50;;;;;;4922389;28;19957;-55
2022/05/30 08:47:07;;;;;;;;;;;20.70;44.50;;;;;;4922269;28;19923;-55
2022/05/30 08:49:35;;;;;;;;;;;20.70;44.50;;;;;;4939860;28;20096;-56
2022/05/30 08:52:09;;;;;;;;;;;20.70;44.50;;;;;;4937270;28;19931;-56
2022/05/30 08:54:42;;;;;;;;;;;20.80;44.60;;;;;;4927137;28;19923;-53
2022/05/30 08:57:10;;;;;;;;;;;20.70;44.50;;;;;;4936563;28;19977;-53
2022/05/30 08:59:42;;;;;;;;;;;20.80;44.60;;;;;;4920351;28;19924;-56
2022/05/30 09:02:11;;;;;;;;;;;20.80;44.60;;;;;;4923184;28;20372;-56
2022/05/30 09:04:39;;;;;;;;;;;20.80;44.50;;;;;;4924250;28;20053;-54
2022/05/30 09:07:07;;;;;;;;;;;20.80;44.50;;;;;;4924657;28;19981;-55
2022/05/30 09:09:35;;;;;;;;;;;20.80;44.50;;;;;;4921310;28;19929;-56
2022/05/30 09:12:03;;;;;;;;;;;20.80;44.40;;;;;;4933707;28;20373;-52
2022/05/30 09:14:33;;;;;;;;;;;20.80;44.40;;;;;;4922511;28;20236;-55
2022/05/30 09:17:00;;;;;;;;;;;20.80;44.30;;;;;;4919919;28;20245;-57
2022/05/30 09:19:27;;;;;;;;;;;20.80;44.30;;;;;;4933255;28;19923;-53
2022/05/30 09:22:01;;;;;;;;;;;20.80;44.30;;;;;;4920292;28;19930;-55
2022/05/30 09:24:28;;;;;;;;;;;20.80;44.30;;;;;;4919552;28;19926;-56
2022/05/30 09:26:57;;;;;;;;;;;20.70;44.30;;;;;;4924041;28;19927;-51
2022/05/30 09:29:24;;;;;;;;;;;20.80;44.40;;;;;;4921517;28;19923;-57
2022/05/30 09:31:55;;;;;;;;;;;20.80;44.40;;;;;;4935568;28;19923;-57
2022/05/30 09:34:31;;;;;;;;;;;20.80;44.40;;;;;;4924737;28;19966;-55
2022/05/30 09:36:59;;;;;;;;;;;20.80;44.40;;;;;;4924219;28;19984;-53
2022/05/30 09:39:26;;;;;;;;;;;20.80;44.50;;;;;;4924435;28;20451;-56
2022/05/30 09:41:54;;;;;;;;;;;20.80;44.50;;;;;;4927703;28;19922;-53
2022/05/30 09:44:24;;;;;;;;;;;20.80;44.50;;;;;;4946451;28;19954;-56
2022/05/30 09:46:51;;;;;;;;;;;20.80;44.50;;;;;;4949206;28;19938;-54
2022/05/30 09:49:21;;;;;;;;;;;20.80;44.40;;;;;;4925143;28;19931;-55
2022/05/30 09:51:48;;;;;;;;;;;20.80;44.50;;;;;;4939623;28;19939;-52
2022/05/30 09:54:31;;;;;;;;;;;20.90;44.50;;;;;;4923730;28;20409;-58
2022/05/30 09:56:58;;;;;;;;;;;20.90;44.50;;;;;;4936882;28;19941;-57
2022/05/30 09:59:29;;;;;;;;;;;20.90;44.50;;;;;;4944318;28;20287;-53
2022/05/30 10:01:56;;;;;;;;;;;20.90;44.50;;;;;;4941122;28;20013;-58
2022/05/30 10:04:35;;;;;;;;;;;20.90;44.40;;;;;;4925428;28;19923;-55
2022/05/30 10:07:05;;;;;;;;;;;20.90;44.20;;;;;;4941150;28;19927;-55
2022/05/30 10:09:34;;;;;;;;;;;20.80;44.10;;;;;;4924395;28;19937;-55
2022/05/30 10:12:01;;;;;;;;;;;20.80;44.00;;;;;;4947055;28;19927;-53
2022/05/30 10:14:28;;;;;;;;;;;20.80;44.00;;;;;;4937397;28;19988;-55
2022/05/30 10:16:57;;;;;;;;;;;20.80;44.10;;;;;;4941364;28;20403;-53
2022/05/30 10:19:24;;;;;;;;;;;20.80;44.00;;;;;;4930315;28;19935;-53
2022/05/30 10:30:13;;;;;;;;;;;20.80;44.00;;;;;;4925925;28;19931;-55
2022/05/30 10:32:41;;;;;;;;;;;20.80;44.00;;;;;;4925952;28;20271;-58
2022/05/30 10:35:14;;;;;;;;;;;20.80;44.00;;;;;;4925933;28;20374;-55
2022/05/30 10:37:45;;;;;;;;;;;20.80;44.00;;;;;;4924568;28;19967;-55
2022/05/30 10:40:17;;;;;;;;;;;20.80;44.00;;;;;;4940241;28;20271;-57
2022/05/30 10:42:44;;;;;;;;;;;20.80;44.00;;;;;;4942254;28;19930;-58
2022/05/30 10:45:12;;;;;;;;;;;20.80;44.00;;;;;;4938892;28;20467;-53
2022/05/30 10:47:40;;;;;;;;;;;20.80;44.10;;;;;;4934946;28;19932;-56
2022/05/30 10:50:08;;;;;;;;;;;20.80;44.10;;;;;;4946051;28;19923;-55
2022/05/30 10:52:37;;;;;;;;;;;20.80;44.20;;;;;;4923935;28;19922;-54
2022/05/30 10:55:05;;;;;;;;;;;20.80;44.20;;;;;;4918349;28;20411;-55
2022/05/30 10:57:35;;;;;;;;;;;20.80;44.30;;;;;;4922878;28;19943;-57
2022/05/30 11:00:04;;;;;;;;;;;20.80;44.30;;;;;;4945661;28;19977;-55
2022/05/30 11:02:32;;;;;;;;;;;20.80;44.30;;;;;;4934792;28;19923;-55
2022/05/30 11:05:00;;;;;;;;;;;20.80;44.40;;;;;;4945587;28;19923;-57
2022/05/30 11:07:47;;;;;;;;;;;20.80;44.40;;;;;;4938549;28;20026;-57
2022/05/30 11:10:20;;;;;;;;;;;20.80;44.40;;;;;;4929834;28;20360;-55
2022/05/30 11:12:48;;;;;;;;;;;20.80;44.40;;;;;;4927402;28;19942;-52
2022/05/30 11:15:16;;;;;;;;;;;20.80;44.30;;;;;;4925695;28;20011;-56
2022/05/30 11:17:44;;;;;;;;;;;20.80;44.30;;;;;;4927383;28;19927;-56
2022/05/30 11:20:12;;;;;;;;;;;20.80;44.20;;;;;;4939874;28;19962;-53
2022/05/30 11:22:39;;;;;;;;;;;20.80;44.10;;;;;;4924119;28;19965;-54
2022/05/30 11:25:06;;;;;;;;;;;20.80;44.10;;;;;;4935308;28;20047;-55
2022/05/30 11:27:35;;;;;;;;;;;20.80;44.00;;;;;;4929559;28;19930;-58
2022/05/30 11:30:19;;;;;;;;;;;20.80;44.00;;;;;;4925117;28;19993;-54
2022/05/30 11:32:50;;;;;;;;;;;20.80;44.10;;;;;;4949726;28;19927;-54
2022/05/30 11:35:31;;;;;;;;;;;20.80;44.10;;;;;;4923625;28;20010;-55
2022/05/30 11:38:11;;;;;;;;;;;20.80;44.10;;;;;;4920231;28;20364;-57
2022/05/30 11:40:39;;;;;;;;;;;20.80;44.10;;;;;;4922565;28;19923;-54
2022/05/30 11:43:18;;;;;;;;;;;20.80;44.20;;;;;;4921620;28;19923;-54
2022/05/30 11:45:50;;;;;;;;;;;20.80;44.20;;;;;;4925039;28;19922;-53
2022/05/30 11:48:21;;;;;;;;;;;20.80;44.20;;;;;;4926215;28;19992;-56
2022/05/30 11:50:50;;;;;;;;;;;20.90;44.30;;;;;;4925703;28;19927;-53
2022/05/30 11:53:31;;;;;;;;;;;20.80;44.20;;;;;;4925015;28;19930;-56
2022/05/30 11:56:00;;;;;;;;;;;20.80;44.10;;;;;;4939322;28;20279;-54
2022/05/30 11:58:29;;;;;;;;;;;20.80;44.00;;;;;;4924103;28;19922;-53
2022/05/30 12:00:56;;;;;;;;;;;20.80;43.90;;;;;;4926157;28;19927;-57
2022/05/30 12:03:46;;;;;;;;;;;20.90;44.10;;;;;;4918027;28;19927;-56
2022/05/30 12:06:22;;;;;;;;;;;20.90;44.10;;;;;;4928009;28;19927;-52
2022/05/30 12:09:04;;;;;;;;;;;20.80;43.90;;;;;;4924083;28;20033;-53
2022/05/30 12:11:52;;;;;;;;;;;20.90;44.00;;;;;;4928598;28;19931;-55
2022/05/30 12:14:24;;;;;;;;;;;20.90;44.10;;;;;;4926816;28;19923;-55
2022/05/30 12:16:51;;;;;;;;;;;20.90;44.10;;;;;;4920980;28;20418;-56
2022/05/30 12:24:52;;;;;;;;;;;20.90;44.10;;;;;;4939345;28;20372;-54
2022/05/30 12:27:36;;;;;;;;;;;20.90;44.10;;;;;;4925284;28;19976;-56
2022/05/30 12:30:04;;;;;;;;;;;20.90;44.10;;;;;;4934343;28;20267;-58
2022/05/30 12:32:34;;;;;;;;;;;20.90;44.10;;;;;;4925994;28;19930;-53
2022/05/30 12:35:10;;;;;;;;;;;20.90;44.10;;;;;;4925731;28;20261;-55
2022/05/30 12:37:44;;;;;;;;;;;20.90;44.10;;;;;;4924695;28;19923;-56
2022/05/30 12:40:11;;;;;;;;;;;20.90;44.10;;;;;;4919944;28;20314;-58
2022/05/30 12:42:42;;;;;;;;;;;20.90;44.10;;;;;;4934795;28;20261;-54
2022/05/30 12:45:17;;;;;;;;;;;20.90;44.10;;;;;;4921667;28;19945;-56
2022/05/30 12:47:48;;;;;;;;;;;20.90;44.10;;;;;;4924972;28;19931;-57
2022/05/30 12:50:33;;;;;;;;;;;20.90;44.10;;;;;;4921823;28;19930;-55
2022/05/30 12:53:02;;;;;;;;;;;20.90;44.10;;;;;;4938680;28;19935;-56
2022/05/30 12:55:32;;;;;;;;;;;20.90;44.10;;;;;;4919474;28;20410;-56
2022/05/30 12:57:59;;;;;;;;;;;20.90;44.10;;;;;;4922450;28;19977;-56
2022/05/30 13:00:44;;;;;;;;;;;20.90;44.10;;;;;;4921555;28;19943;-52
2022/05/30 13:03:22;;;;;;;;;;;21.00;44.10;;;;;;4932375;28;19935;-57
2022/05/30 13:06:00;;;;;;;;;;;20.90;44.10;;;;;;4924349;28;19972;-57
2022/05/30 13:08:46;;;;;;;;;;;21.00;44.10;;;;;;4926133;28;20039;-53
2022/05/30 13:11:14;;;;;;;;;;;21.00;44.10;;;;;;4938618;28;19922;-53
2022/05/30 13:13:42;;;;;;;;;;;21.00;44.10;;;;;;4925266;28;19935;-57
2022/05/30 13:16:10;;;;;;;;;;;21.00;44.10;;;;;;4946816;28;19950;-55
2022/05/30 13:18:37;;;;;;;;;;;21.00;44.10;;;;;;4924775;28;19927;-55
2022/05/30 13:21:04;;;;;;;;;;;21.00;44.10;;;;;;4926852;28;19935;-58
2022/05/30 13:23:33;;;;;;;;;;;21.00;44.10;;;;;;4938650;28;20363;-55
2022/05/30 13:26:00;;;;;;;;;;;21.00;44.10;;;;;;4926834;28;19923;-56
2022/05/30 13:28:29;;;;;;;;;;;21.00;44.10;;;;;;4937313;28;19922;-59
2022/05/30 13:30:56;;;;;;;;;;;21.00;44.10;;;;;;4928011;28;19946;-55
2022/05/30 13:33:23;;;;;;;;;;;21.00;44.00;;;;;;4928397;28;20008;-56
2022/05/30 13:35:53;;;;;;;;;;;21.00;44.00;;;;;;4925376;28;20022;-55
2022/05/30 13:38:21;;;;;;;;;;;21.00;44.00;;;;;;4952941;28;20343;-56
2022/05/30 13:40:49;;;;;;;;;;;21.00;44.00;;;;;;4931821;28;19929;-55
2022/05/30 13:43:17;;;;;;;;;;;21.00;44.00;;;;;;4927364;28;20303;-54
2022/05/30 13:45:46;;;;;;;;;;;21.00;44.00;;;;;;4923156;28;19927;-52
2022/05/30 13:48:14;;;;;;;;;;;21.00;44.00;;;;;;4923935;28;20014;-57
2022/05/30 13:50:42;;;;;;;;;;;21.00;43.90;;;;;;4925933;28;19935;-55
2022/05/30 13:53:09;;;;;;;;;;;21.00;43.90;;;;;;4924508;28;19981;-55
2022/05/30 13:55:36;;;;;;;;;;;21.00;43.90;;;;;;4928336;28;19931;-56
2022/05/30 13:58:02;;;;;;;;;;;21.00;43.90;;;;;;4942637;28;19931;-52
2022/05/30 14:00:30;;;;;;;;;;;21.00;43.90;;;;;;4938093;28;20358;-56
2022/05/30 14:02:59;;;;;;;;;;;21.00;43.90;;;;;;4925001;28;19935;-58
2022/05/30 14:05:35;;;;;;;;;;;21.00;43.80;;;;;;4936201;28;19923;-59
2022/05/30 14:08:03;;;;;;;;;;;21.00;43.80;;;;;;4926971;28;19931;-57
2022/05/30 14:10:29;;;;;;;;;;;21.00;43.80;;;;;;4938018;28;19923;-56
2022/05/30 14:12:56;;;;;;;;;;;21.00;43.80;;;;;;4929608;28;19996;-54
2022/05/30 14:15:24;;;;;;;;;;;21.00;43.80;;;;;;4950879;28;19934;-55
2022/05/30 14:17:52;;;;;;;;;;;21.00;43.80;;;;;;4926159;28;19922;-53
2022/05/30 14:20:29;;;;;;;;;;;21.00;43.80;;;;;;4923621;28;20287;-57
2022/05/30 14:22:57;;;;;;;;;;;21.00;43.90;;;;;;4928679;28;19931;-55
2022/05/30 14:25:25;;;;;;;;;;;21.00;43.90;;;;;;4923799;28;19933;-57
2022/05/30 14:27:52;;;;;;;;;;;21.00;43.90;;;;;;4922362;28;19930;-56
2022/05/30 14:30:19;;;;;;;;;;;21.00;43.90;;;;;;4925372;28;19987;-55
2022/05/30 14:32:49;;;;;;;;;;;21.00;43.90;;;;;;4926172;28;19961;-51
2022/05/30 14:35:22;;;;;;;;;;;21.00;43.90;;;;;;4924861;28;19930;-55
2022/05/30 14:38:02;;;;;;;;;;;21.00;43.90;;;;;;5003631;28;20020;-56
2022/05/30 14:40:31;;;;;;;;;;;21.00;43.90;;;;;;4925958;28;20006;-57
2022/05/30 14:42:58;;;;;;;;;;;21.00;43.90;;;;;;4933606;28;19933;-53
2022/05/30 14:45:26;;;;;;;;;;;21.00;43.80;;;;;;4945979;28;19927;-56
2022/05/30 14:47:54;;;;;;;;;;;21.00;43.70;;;;;;4924632;28;20072;-54
2022/05/30 14:50:22;;;;;;;;;;;21.00;43.70;;;;;;4936270;28;19943;-56
2022/05/30 14:52:50;;;;;;;;;;;21.00;43.60;;;;;;4924102;28;19969;-57